createdAt,value
2023-01-19T00:02:01.153Z,31.27
2023-01-19T00:07:05.307Z,29.05
2023-01-19T00:12:08.887Z,29.23
2023-01-19T00:17:13.672Z,28.75
2023-01-19T00:22:17.090Z,28.90
2023-01-19T00:27:20.701Z,30.40
2023-01-19T00:32:25.483Z,30.48
2023-01-19T00:37:28.871Z,31.60
2023-01-19T00:42:41.355Z,32.42
2023-01-19T00:47:46.660Z,31.63
2023-01-19T00:52:50.711Z,31.55
2023-01-19T00:57:54.160Z,31.85
2023-01-19T01:02:59.403Z,31.73
2023-01-19T01:08:03.177Z,30.77
2023-01-19T01:13:20.905Z,29.00
2023-01-19T01:18:27.406Z,32.17
2023-01-19T01:23:30.800Z,29.58
2023-01-19T01:28:34.552Z,27.38
2023-01-19T01:33:40.404Z,22.95
2023-01-19T01:38:44.831Z,22.45
2023-01-19T01:43:50.185Z,18.88
2023-01-19T01:49:01.718Z,18.40
2023-01-19T01:54:11.802Z,17.20
2023-01-19T01:59:26.195Z,13.40
2023-01-19T02:04:32.200Z,12.70
2023-01-19T02:09:55.447Z,9.15
2023-01-19T02:14:58.971Z,8.27
2023-01-19T02:20:04.032Z,6.22
2023-01-19T02:25:09.920Z,6.32
2023-01-19T02:30:16.638Z,5.50
2023-01-19T02:35:21.341Z,6.05
2023-01-19T02:40:28.068Z,6.32
2023-01-19T02:45:31.828Z,6.57
2023-01-19T02:50:46.267Z,5.55
2023-01-19T02:55:56.818Z,6.15
2023-01-19T03:01:08.808Z,6.63
2023-01-19T03:06:21.713Z,6.40
2023-01-19T03:11:32.689Z,5.65
2023-01-19T03:16:40.853Z,4.72
2023-01-19T03:21:48.445Z,5.10
2023-01-19T03:26:58.863Z,5.22
2023-01-19T03:32:09.083Z,5.63
2023-01-19T03:37:14.747Z,5.85
2023-01-19T03:42:21.395Z,5.38
2023-01-19T03:47:26.305Z,5.40
2023-01-19T03:52:32.627Z,5.28
2023-01-19T03:57:38.513Z,6.38
2023-01-19T04:02:42.242Z,6.30
2023-01-19T04:07:45.712Z,6.10
2023-01-19T04:12:51.217Z,6.82
2023-01-19T04:17:55.320Z,7.35
2023-01-19T04:23:01.851Z,8.50
2023-01-19T04:28:07.363Z,8.43
2023-01-19T04:33:10.783Z,9.45
2023-01-19T04:38:14.428Z,9.85
2023-01-19T04:43:19.627Z,9.82
2023-01-19T04:48:23.104Z,10.98
2023-01-19T04:53:26.609Z,10.77
2023-01-19T04:58:31.518Z,11.57
2023-01-19T05:03:35.131Z,11.48
2023-01-19T05:08:38.853Z,13.13
2023-01-19T05:13:43.869Z,11.55
2023-01-19T05:18:47.493Z,12.07
2023-01-19T05:23:51.129Z,11.73
2023-01-19T05:28:56.578Z,11.55
2023-01-19T05:34:00.032Z,10.13
2023-01-19T05:39:03.453Z,10.70
2023-01-19T05:44:08.403Z,9.52
2023-01-19T05:49:13.664Z,9.05
2023-01-19T05:54:17.094Z,8.43
2023-01-19T05:59:24.465Z,9.00
2023-01-19T06:04:28.050Z,9.23
2023-01-19T06:09:31.546Z,8.63
2023-01-19T06:14:37.043Z,7.20
2023-01-19T06:19:40.787Z,7.85
2023-01-19T06:24:44.324Z,7.10
2023-01-19T06:29:49.193Z,7.22
2023-01-19T06:34:54.037Z,7.47
2023-01-19T06:39:57.503Z,8.38
2023-01-19T06:45:02.321Z,8.80
2023-01-19T06:50:06.412Z,9.15
2023-01-19T06:55:10.975Z,9.43
2023-01-19T07:00:17.111Z,8.35
2023-01-19T07:05:22.146Z,9.52
2023-01-19T07:10:25.882Z,8.98
2023-01-19T07:15:50.687Z,9.15
2023-01-19T07:20:54.094Z,8.90
2023-01-19T07:25:57.549Z,9.35
2023-01-19T07:31:02.492Z,10.50
2023-01-19T07:36:07.215Z,9.35
2023-01-19T07:41:11.546Z,10.45
2023-01-19T07:46:16.424Z,11.15
2023-01-19T07:51:19.938Z,9.35
2023-01-19T07:56:24.350Z,9.88
2023-01-19T08:01:30.006Z,9.43
2023-01-19T08:06:36.097Z,9.32
2023-01-19T08:11:39.819Z,9.43
2023-01-19T08:16:44.629Z,8.55
2023-01-19T08:21:48.313Z,10.23
2023-01-19T08:26:51.847Z,10.95
2023-01-19T08:31:58.947Z,11.48
2023-01-19T08:37:02.555Z,10.60
2023-01-19T08:42:06.121Z,9.88
2023-01-19T08:47:11.376Z,9.95
2023-01-19T08:52:14.798Z,10.95
2023-01-19T08:57:18.659Z,10.18
2023-01-19T09:02:24.639Z,10.20
2023-01-19T09:07:30.526Z,12.00
2023-01-19T09:12:35.937Z,10.27
2023-01-19T09:17:41.121Z,11.27
2023-01-19T09:22:44.585Z,10.30
2023-01-19T09:27:48.050Z,10.23
2023-01-19T09:32:52.828Z,8.68
2023-01-19T09:37:56.251Z,9.52
2023-01-19T09:43:12.942Z,8.40
2023-01-19T09:48:27.798Z,8.13
2023-01-19T09:53:44.767Z,7.97
2023-01-19T09:58:49.741Z,7.47
2023-01-19T10:04:11.203Z,7.10
2023-01-19T10:09:23.370Z,7.03
2023-01-19T10:14:32.804Z,6.53
2023-01-19T10:19:45.113Z,6.78
2023-01-19T10:24:54.309Z,7.55
2023-01-19T10:29:58.669Z,7.20
2023-01-19T10:35:13.596Z,7.38
2023-01-19T10:40:26.562Z,7.03
2023-01-19T10:45:32.173Z,6.63
2023-01-19T10:50:39.838Z,7.85
2023-01-19T10:55:45.057Z,6.78
2023-01-19T11:00:48.713Z,7.38
2023-01-19T11:05:53.924Z,7.35
2023-01-19T11:11:02.412Z,6.32
2023-01-19T11:16:08.685Z,5.65
2023-01-19T11:21:16.685Z,6.97
2023-01-19T11:26:27.958Z,5.63
2023-01-19T11:31:34.966Z,6.65
2023-01-19T11:36:39.742Z,5.45
2023-01-19T11:41:43.562Z,7.45
2023-01-19T11:46:51.683Z,6.28
2023-01-19T11:52:03.426Z,5.20
2023-01-19T11:57:13.669Z,6.65
2023-01-19T12:02:28.095Z,6.22
2023-01-19T12:07:37.765Z,6.18
2023-01-19T12:12:42.576Z,5.70
2023-01-19T12:17:49.721Z,5.65
2023-01-19T12:23:04.001Z,6.18
2023-01-19T12:28:13.729Z,6.28
2023-01-19T12:33:35.979Z,7.35
2023-01-19T12:38:47.358Z,6.35
2023-01-19T12:44:30.779Z,5.35
2023-01-19T12:49:44.574Z,6.85
2023-01-19T12:55:00.594Z,6.40
2023-01-19T13:00:09.213Z,6.25
2023-01-19T13:05:18.871Z,5.82
2023-01-19T13:10:59.954Z,7.28
2023-01-19T13:17:00.315Z,7.15
2023-01-19T13:22:50.619Z,6.40
2023-01-19T13:27:54.028Z,5.85
2023-01-19T13:33:05.535Z,6.30
2023-01-19T13:38:14.417Z,6.20
2023-01-19T13:43:22.989Z,6.07
2023-01-19T13:48:28.581Z,5.72
2023-01-19T13:53:32.546Z,5.75
2023-01-19T13:58:36.520Z,6.25
2023-01-19T14:03:41.937Z,7.03
2023-01-19T14:08:45.332Z,6.00
2023-01-19T14:13:48.737Z,5.93
2023-01-19T14:19:02.342Z,6.35
2023-01-19T14:24:10.513Z,7.07
2023-01-19T14:29:19.963Z,6.55
2023-01-19T14:34:41.803Z,5.53
2023-01-19T14:39:47.262Z,5.35
2023-01-19T14:44:53.552Z,6.40
2023-01-19T14:50:03.713Z,5.35
2023-01-19T14:55:18.147Z,5.85
2023-01-19T15:00:22.705Z,5.70
2023-01-19T15:05:27.529Z,5.95
2023-01-19T15:10:32.147Z,6.18
2023-01-19T15:15:37.163Z,7.03
2023-01-19T15:20:41.961Z,6.28
2023-01-19T15:25:45.849Z,9.70
2023-01-19T15:30:49.308Z,8.52
2023-01-19T15:35:54.851Z,9.07
2023-01-19T15:40:58.750Z,9.95
2023-01-19T15:46:03.090Z,9.82
2023-01-19T15:51:13.429Z,8.82
2023-01-19T15:56:18.188Z,9.85
2023-01-19T16:01:23.869Z,10.07
2023-01-19T16:06:28.989Z,11.15
2023-01-19T16:11:35.384Z,12.05
2023-01-19T16:16:38.919Z,13.48
2023-01-19T16:21:43.962Z,11.32
2023-01-19T16:26:47.446Z,10.88
2023-01-19T16:31:51.589Z,13.48
2023-01-19T16:36:56.678Z,13.95
2023-01-19T16:42:00.151Z,13.48
2023-01-19T16:47:04.069Z,16.48
2023-01-19T16:52:09.397Z,20.50
2023-01-19T16:57:13.185Z,19.33
2023-01-19T17:02:16.818Z,19.25
2023-01-19T17:07:21.870Z,19.92
2023-01-19T17:12:25.511Z,16.42
2023-01-19T17:17:29.292Z,16.05
2023-01-19T17:22:34.121Z,17.92
2023-01-19T17:27:37.555Z,17.98
2023-01-19T17:32:42.751Z,18.88
2023-01-19T17:38:05.920Z,19.42
2023-01-19T17:43:09.583Z,19.55
2023-01-19T17:48:13.416Z,18.77
2023-01-19T17:53:18.330Z,18.45
2023-01-19T17:58:23.682Z,18.27
2023-01-19T18:03:27.083Z,17.80
2023-01-19T18:08:32.514Z,19.83
2023-01-19T18:13:36.294Z,19.75
2023-01-19T18:18:41.109Z,20.70
2023-01-19T18:23:46.211Z,19.67
2023-01-19T18:28:50.710Z,23.08
2023-01-19T18:33:54.543Z,24.25
2023-01-19T18:38:59.404Z,23.52
2023-01-19T18:44:02.859Z,22.45
2023-01-19T18:49:09.720Z,19.35
2023-01-19T18:54:14.671Z,19.73
2023-01-19T18:59:18.203Z,19.52
2023-01-19T19:04:21.711Z,19.70
2023-01-19T19:09:26.594Z,19.05
2023-01-19T19:14:30.564Z,22.63
2023-01-19T19:19:34.847Z,25.65
2023-01-19T19:24:40.264Z,27.42
2023-01-19T19:29:44.989Z,26.13
2023-01-19T19:34:50.473Z,25.35
2023-01-19T19:39:55.840Z,23.85
2023-01-19T19:44:59.202Z,23.85
2023-01-19T19:50:02.674Z,24.23
2023-01-19T19:55:09.829Z,24.73
2023-01-19T20:00:14.315Z,20.52
2023-01-19T20:05:17.948Z,22.58
2023-01-19T20:10:22.789Z,22.35
2023-01-19T20:15:26.306Z,23.95
2023-01-19T20:20:30.044Z,24.98
2023-01-19T20:25:41.133Z,27.85
2023-01-19T20:30:45.337Z,24.90
2023-01-19T20:35:48.807Z,25.73
2023-01-19T20:40:54.616Z,27.92
2023-01-19T20:46:06.065Z,29.50
2023-01-19T20:51:11.308Z,29.30
2023-01-19T20:56:16.993Z,31.88
2023-01-19T21:01:23.370Z,26.75
2023-01-19T21:06:27.162Z,28.25
2023-01-19T21:11:32.893Z,29.08
2023-01-19T21:16:37.041Z,28.42
2023-01-19T21:21:41.317Z,29.23
2023-01-19T21:26:46.378Z,26.83
2023-01-19T21:31:49.918Z,27.88
2023-01-19T21:36:53.752Z,29.08
2023-01-19T21:41:58.543Z,29.10
2023-01-19T21:47:02.094Z,28.60
2023-01-19T21:52:06.068Z,30.00
2023-01-19T21:57:10.878Z,29.60
2023-01-19T22:02:14.582Z,33.83
2023-01-19T22:07:18.792Z,30.88
2023-01-19T22:12:23.705Z,32.65
2023-01-19T22:17:27.436Z,32.38
2023-01-19T22:22:34.059Z,33.10
2023-01-19T22:27:38.882Z,35.30
2023-01-19T22:32:42.376Z,35.15
2023-01-19T22:37:45.766Z,34.30
2023-01-19T22:42:50.717Z,37.13
2023-01-19T22:47:54.158Z,37.83
2023-01-19T22:52:58.472Z,36.40
2023-01-19T22:58:03.384Z,36.10
2023-01-19T23:03:07.158Z,38.35
2023-01-19T23:08:10.824Z,41.80
2023-01-19T23:13:15.610Z,38.33
2023-01-19T23:18:19.666Z,37.65
2023-01-19T23:23:23.773Z,34.83
2023-01-19T23:28:28.763Z,34.72
2023-01-19T23:33:32.278Z,35.63
2023-01-19T23:38:35.805Z,37.08
2023-01-19T23:43:40.632Z,40.85
2023-01-19T23:48:44.340Z,40.13
2023-01-19T23:53:48.629Z,41.85
2023-01-19T23:58:57.222Z,44.08
